createdAt,value
2022-12-03T00:00:41.379Z,2.73
2022-12-03T00:02:21.132Z,2.71
2022-12-03T00:04:00.896Z,2.71
2022-12-03T00:05:40.727Z,2.73
2022-12-03T00:07:20.494Z,2.72
2022-12-03T00:09:00.212Z,2.72
2022-12-03T00:10:39.969Z,2.71
2022-12-03T00:12:19.858Z,2.7
2022-12-03T00:13:59.494Z,2.68
2022-12-03T00:15:39.278Z,2.68
2022-12-03T00:17:19.074Z,2.69
2022-12-03T00:18:58.855Z,2.69
2022-12-03T00:20:38.573Z,2.68
2022-12-03T00:22:18.350Z,2.68
2022-12-03T00:23:58.111Z,2.69
2022-12-03T00:25:37.929Z,2.68
2022-12-03T00:27:17.649Z,2.66
2022-12-03T00:28:57.397Z,2.65
2022-12-03T00:30:37.241Z,2.66
2022-12-03T00:32:16.937Z,2.68
2022-12-03T00:33:56.715Z,2.65
2022-12-03T00:35:36.479Z,2.66
2022-12-03T00:37:16.239Z,2.63
2022-12-03T00:38:56.006Z,2.63
2022-12-03T00:40:35.775Z,2.65
2022-12-03T00:42:15.539Z,2.64
2022-12-03T00:43:55.318Z,2.64
2022-12-03T00:45:35.097Z,2.63
2022-12-03T00:47:14.838Z,2.62
2022-12-03T00:48:54.609Z,2.63
2022-12-03T00:50:34.383Z,2.6
2022-12-03T00:52:14.152Z,2.61
2022-12-03T00:53:53.971Z,2.63
2022-12-03T00:55:33.807Z,2.64
2022-12-03T00:57:13.454Z,2.63
2022-12-03T00:58:53.358Z,2.61
2022-12-03T01:00:32.993Z,2.62
2022-12-03T01:02:12.903Z,2.6
2022-12-03T01:03:52.658Z,2.61
2022-12-03T01:05:32.300Z,2.62
2022-12-03T01:07:12.061Z,2.6
2022-12-03T01:08:51.823Z,2.59
2022-12-03T01:12:11.370Z,2.59
2022-12-03T01:13:51.127Z,2.57
2022-12-03T01:15:30.945Z,2.59
2022-12-03T01:17:10.665Z,2.59
2022-12-03T01:18:50.418Z,2.6
2022-12-03T01:20:30.184Z,2.58
2022-12-03T01:22:09.962Z,2.59
2022-12-03T01:23:49.727Z,2.55
2022-12-03T01:25:29.482Z,2.58
2022-12-03T01:27:09.260Z,2.59
2022-12-03T01:28:49.019Z,2.57
2022-12-03T01:30:28.805Z,2.57
2022-12-03T01:32:08.564Z,2.54
2022-12-03T01:35:28.159Z,2.53
2022-12-03T01:37:07.863Z,2.56
2022-12-03T01:38:47.633Z,2.57
2022-12-03T01:40:27.390Z,2.54
2022-12-03T01:42:07.215Z,2.53
2022-12-03T01:43:46.927Z,2.56
2022-12-03T01:45:26.689Z,2.55
2022-12-03T01:47:06.481Z,2.55
2022-12-03T01:48:46.227Z,2.53
2022-12-03T01:50:25.998Z,2.52
2022-12-03T01:52:05.767Z,2.54
2022-12-03T01:53:45.541Z,2.55
2022-12-03T01:55:25.302Z,2.54
2022-12-03T01:57:05.071Z,2.51
2022-12-03T01:58:44.828Z,2.54
2022-12-03T02:00:24.607Z,2.52
2022-12-03T02:02:04.379Z,2.54
2022-12-03T02:03:44.140Z,2.5
2022-12-03T02:05:23.939Z,2.51
2022-12-03T02:07:03.685Z,2.53
2022-12-03T02:08:43.448Z,2.51
2022-12-03T02:10:23.326Z,2.52
2022-12-03T02:12:02.980Z,2.5
2022-12-03T02:13:42.771Z,2.51
2022-12-03T02:15:22.507Z,2.51
2022-12-03T02:17:02.263Z,2.52
2022-12-03T02:18:42.097Z,2.49
2022-12-03T02:20:21.812Z,2.51
2022-12-03T02:22:01.571Z,2.5
2022-12-03T02:23:41.370Z,2.5
2022-12-03T02:25:21.114Z,2.51
2022-12-03T02:27:00.867Z,2.5
2022-12-03T02:28:40.642Z,2.47
2022-12-03T02:30:20.395Z,2.5
2022-12-03T02:32:00.197Z,2.49
2022-12-03T02:33:39.947Z,2.5
2022-12-03T02:35:19.736Z,2.48
2022-12-03T02:36:59.535Z,2.47
2022-12-03T02:38:39.252Z,2.5
2022-12-03T02:40:19.084Z,2.47
2022-12-03T02:41:58.784Z,2.5
2022-12-03T02:43:38.535Z,2.46
2022-12-03T02:45:18.322Z,2.49
2022-12-03T02:46:58.078Z,2.49
2022-12-03T02:48:37.853Z,2.49
2022-12-03T02:50:17.608Z,2.47
2022-12-03T02:51:57.376Z,2.45
2022-12-03T02:53:37.163Z,2.48
2022-12-03T02:55:16.920Z,2.45
2022-12-03T02:56:56.677Z,2.45
2022-12-03T02:58:36.474Z,2.46
2022-12-03T03:00:16.215Z,2.48
2022-12-03T03:01:55.988Z,2.45
2022-12-03T03:03:35.750Z,2.47
2022-12-03T03:05:15.591Z,2.46
2022-12-03T03:06:55.310Z,2.46
2022-12-03T03:08:35.082Z,2.45
2022-12-03T03:10:14.877Z,2.46
2022-12-03T03:11:54.603Z,2.44
2022-12-03T03:13:34.356Z,2.43
2022-12-03T03:15:14.176Z,2.44
2022-12-03T03:16:53.890Z,2.45
2022-12-03T03:18:33.679Z,2.43
2022-12-03T03:20:13.497Z,2.46
2022-12-03T03:21:53.260Z,2.42
2022-12-03T03:23:32.961Z,2.45
2022-12-03T03:25:12.719Z,2.45
2022-12-03T03:26:52.512Z,2.43
2022-12-03T03:28:32.321Z,2.44
2022-12-03T03:30:12.095Z,2.44
2022-12-03T03:31:51.812Z,2.41
2022-12-03T03:33:31.642Z,2.41
2022-12-03T03:35:11.361Z,2.45
2022-12-03T03:36:51.128Z,2.41
2022-12-03T03:38:30.865Z,2.41
2022-12-03T03:40:10.630Z,2.43
2022-12-03T03:41:50.414Z,2.43
2022-12-03T03:43:30.172Z,2.4
2022-12-03T03:45:09.950Z,2.43
2022-12-03T03:46:49.698Z,2.4
2022-12-03T03:48:29.457Z,2.42
2022-12-03T03:50:09.278Z,2.42
2022-12-03T03:51:49.060Z,2.4
2022-12-03T03:53:28.762Z,2.41
2022-12-03T03:55:08.535Z,2.41
2022-12-03T03:56:48.296Z,2.42
2022-12-03T03:58:28.117Z,2.42
2022-12-03T04:00:07.855Z,2.41
2022-12-03T04:01:47.608Z,2.4
2022-12-03T04:03:27.381Z,2.39
2022-12-03T04:05:07.126Z,2.39
2022-12-03T04:06:46.897Z,2.39
2022-12-03T04:08:26.677Z,2.39
2022-12-03T04:10:06.430Z,2.4
2022-12-03T04:11:46.242Z,2.4
2022-12-03T04:13:26.065Z,2.38
2022-12-03T04:15:05.729Z,2.39
2022-12-03T04:16:45.510Z,2.41
2022-12-03T04:18:25.270Z,2.38
2022-12-03T04:20:05.030Z,2.4
2022-12-03T04:21:44.865Z,2.39
2022-12-03T04:23:24.590Z,2.4
2022-12-03T04:25:04.339Z,2.38
2022-12-03T04:26:44.115Z,2.4
2022-12-03T04:28:23.939Z,2.36
2022-12-03T04:30:03.630Z,2.4
2022-12-03T04:31:43.405Z,2.39
2022-12-03T04:33:23.189Z,2.4
2022-12-03T04:35:02.956Z,2.36
2022-12-03T04:36:42.710Z,2.38
2022-12-03T04:38:22.490Z,2.4
2022-12-03T04:40:02.267Z,2.4
2022-12-03T04:41:42.009Z,2.36
2022-12-03T04:43:21.771Z,2.38
2022-12-03T04:45:01.542Z,2.36
2022-12-03T04:46:41.328Z,2.35
2022-12-03T04:48:21.079Z,2.36
2022-12-03T04:50:00.843Z,2.35
2022-12-03T04:51:40.610Z,2.38
2022-12-03T04:53:20.390Z,2.34
2022-12-03T04:55:00.156Z,2.36
2022-12-03T04:56:39.912Z,2.35
2022-12-03T04:58:19.710Z,2.33
2022-12-03T04:59:59.452Z,2.33
2022-12-03T05:01:39.211Z,2.36
2022-12-03T05:03:18.972Z,2.33
2022-12-03T05:04:58.804Z,2.33
2022-12-03T05:06:38.517Z,2.36
2022-12-03T05:08:18.334Z,2.35
2022-12-03T05:09:58.117Z,2.33
2022-12-03T05:11:37.895Z,2.35
2022-12-03T05:13:17.581Z,2.33
2022-12-03T05:14:57.365Z,2.34
2022-12-03T05:16:37.112Z,2.35
2022-12-03T05:18:16.893Z,2.33
2022-12-03T05:19:56.646Z,2.35
2022-12-03T05:23:16.196Z,2.32
2022-12-03T05:24:55.998Z,2.33
2022-12-03T05:26:35.743Z,2.33
2022-12-03T05:28:15.498Z,2.33
2022-12-03T05:29:55.352Z,2.33
2022-12-03T05:31:35.025Z,2.32
2022-12-03T05:33:14.837Z,2.34
2022-12-03T05:34:54.615Z,2.33
2022-12-03T05:36:34.377Z,2.31
2022-12-03T05:38:14.090Z,2.33
2022-12-03T05:39:53.930Z,2.33
2022-12-03T05:41:33.723Z,2.33
2022-12-03T05:43:13.396Z,2.31
2022-12-03T05:44:53.152Z,2.31
2022-12-03T05:46:32.925Z,2.31
2022-12-03T05:48:12.705Z,2.33
2022-12-03T05:49:52.468Z,2.33
2022-12-03T05:51:32.229Z,2.29
2022-12-03T05:53:12.015Z,2.31
2022-12-03T05:54:51.754Z,2.3
2022-12-03T05:56:31.532Z,2.3
2022-12-03T05:58:11.307Z,2.32
2022-12-03T05:59:51.058Z,2.31
2022-12-03T06:01:30.844Z,2.3
2022-12-03T06:03:10.610Z,2.32
2022-12-03T06:04:50.363Z,2.3
2022-12-03T06:06:30.141Z,2.31
2022-12-03T06:08:09.904Z,2.29
2022-12-03T06:09:49.671Z,2.3
2022-12-03T06:11:29.430Z,2.31
2022-12-03T06:13:09.199Z,2.31
2022-12-03T06:14:48.967Z,2.31
2022-12-03T06:16:28.727Z,2.29
2022-12-03T06:18:08.495Z,2.3
2022-12-03T06:19:48.279Z,2.29
2022-12-03T06:21:28.061Z,2.27
2022-12-03T06:23:07.791Z,2.31
2022-12-03T06:24:47.568Z,2.27
2022-12-03T06:26:27.400Z,2.26
2022-12-03T06:28:07.107Z,2.28
2022-12-03T06:29:46.863Z,2.27
2022-12-03T06:31:26.644Z,2.26
2022-12-03T06:33:06.465Z,2.28
2022-12-03T06:34:46.204Z,2.25
2022-12-03T06:36:26.011Z,2.25
2022-12-03T06:38:05.763Z,2.3
2022-12-03T06:39:45.484Z,2.26
2022-12-03T06:41:25.240Z,2.27
2022-12-03T06:43:05.026Z,2.3
2022-12-03T06:44:44.797Z,2.31
2022-12-03T06:48:04.415Z,2.35
2022-12-03T06:49:44.085Z,2.38
2022-12-03T06:51:23.834Z,2.45
2022-12-03T06:53:03.694Z,2.4
2022-12-03T06:54:43.394Z,2.44
2022-12-03T06:56:23.144Z,2.47
2022-12-03T06:58:02.899Z,2.48
2022-12-03T06:59:42.678Z,2.47
2022-12-03T07:01:22.554Z,2.49
2022-12-03T07:03:02.223Z,2.53
2022-12-03T07:04:41.990Z,2.52
2022-12-03T07:06:21.742Z,2.54
2022-12-03T07:08:01.536Z,2.55
2022-12-03T07:09:41.332Z,2.55
2022-12-03T07:11:21.191Z,2.57
2022-12-03T07:13:00.825Z,2.56
2022-12-03T07:14:40.606Z,2.59
2022-12-03T07:16:20.352Z,2.59
2022-12-03T07:18:00.136Z,2.57
2022-12-03T07:19:39.958Z,2.6
2022-12-03T07:21:19.714Z,2.61
2022-12-03T07:22:59.456Z,2.65
2022-12-03T07:24:39.273Z,2.62
2022-12-03T07:26:18.949Z,2.63
2022-12-03T07:29:38.581Z,2.63
2022-12-03T07:31:18.314Z,2.65
2022-12-03T07:32:58.085Z,2.7
2022-12-03T07:34:37.805Z,2.68
2022-12-03T07:36:17.683Z,2.66
2022-12-03T07:37:57.328Z,2.65
2022-12-03T07:39:37.081Z,2.68
2022-12-03T07:41:16.928Z,2.67
2022-12-03T07:42:56.696Z,2.64
2022-12-03T07:44:36.399Z,2.68
2022-12-03T07:46:16.171Z,2.68
2022-12-03T07:47:56.016Z,2.7
2022-12-03T07:49:35.703Z,2.69
2022-12-03T07:51:15.489Z,2.68
2022-12-03T07:54:35.184Z,2.69
2022-12-03T07:57:54.630Z,2.72
2022-12-03T07:59:34.341Z,2.73
2022-12-03T08:01:14.095Z,2.71
2022-12-03T08:02:53.877Z,2.76
2022-12-03T08:04:33.715Z,2.74
2022-12-03T08:06:13.547Z,2.72
2022-12-03T08:07:53.193Z,2.73
2022-12-03T08:09:32.952Z,2.72
2022-12-03T08:11:12.911Z,2.75
2022-12-03T08:12:52.564Z,2.73
2022-12-03T08:14:32.248Z,2.75
2022-12-03T08:16:12.016Z,2.79
2022-12-03T08:17:51.859Z,2.78
2022-12-03T08:19:31.617Z,2.74
2022-12-03T08:21:11.332Z,2.72
2022-12-03T08:22:51.132Z,2.77
2022-12-03T08:24:30.934Z,2.75
2022-12-03T08:26:10.719Z,2.77
2022-12-03T08:27:50.494Z,2.78
2022-12-03T08:29:30.215Z,2.81
2022-12-03T08:31:09.945Z,2.76
2022-12-03T08:32:49.714Z,2.8
2022-12-03T08:36:09.249Z,2.77
2022-12-03T08:37:49.023Z,2.8
2022-12-03T08:39:28.866Z,2.78
2022-12-03T08:41:08.576Z,2.77
2022-12-03T08:42:48.419Z,2.81
2022-12-03T08:46:07.877Z,2.82
2022-12-03T08:47:47.641Z,2.78
2022-12-03T08:49:27.403Z,2.81
2022-12-03T08:51:07.216Z,2.81
2022-12-03T08:52:46.960Z,2.81
2022-12-03T08:54:26.844Z,2.79
2022-12-03T08:56:06.488Z,2.84
2022-12-03T08:57:46.339Z,2.84
2022-12-03T08:59:26.056Z,2.83
2022-12-03T09:01:05.931Z,2.81
2022-12-03T09:02:45.570Z,2.83
2022-12-03T09:04:25.341Z,2.86
2022-12-03T09:06:05.193Z,2.84
2022-12-03T09:07:44.960Z,2.85
2022-12-03T09:09:24.677Z,2.86
2022-12-03T09:11:04.425Z,2.87
2022-12-03T09:12:44.225Z,2.87
2022-12-03T09:14:24.035Z,2.9
2022-12-03T09:16:03.883Z,2.87
2022-12-03T09:17:43.512Z,2.91
2022-12-03T09:21:03.115Z,2.9
2022-12-03T09:22:42.816Z,2.92
2022-12-03T09:24:22.619Z,2.92
2022-12-03T09:26:02.417Z,2.95
2022-12-03T09:27:42.159Z,2.93
2022-12-03T09:29:22.066Z,2.94
2022-12-03T09:31:01.728Z,2.94
2022-12-03T09:32:41.584Z,2.95
2022-12-03T09:34:21.258Z,2.98
2022-12-03T09:36:01.082Z,2.93
2022-12-03T09:37:40.737Z,2.94
2022-12-03T09:39:20.641Z,2.93
2022-12-03T09:41:00.390Z,2.95
2022-12-03T09:42:40.108Z,2.96
2022-12-03T09:44:19.851Z,2.94
2022-12-03T09:45:59.594Z,2.9
2022-12-03T09:47:39.361Z,2.95
2022-12-03T09:49:19.117Z,2.91
2022-12-03T09:50:59.040Z,2.96
2022-12-03T09:52:38.656Z,2.95
2022-12-03T09:54:18.438Z,3
2022-12-03T09:55:58.197Z,2.95
2022-12-03T09:57:37.974Z,2.95
2022-12-03T09:59:17.748Z,2.97
2022-12-03T10:00:57.505Z,2.95
2022-12-03T10:02:37.289Z,2.98
2022-12-03T10:04:17.053Z,3
2022-12-03T10:05:56.819Z,2.99
2022-12-03T10:07:36.591Z,3
2022-12-03T10:09:16.356Z,3
2022-12-03T10:10:56.120Z,3
2022-12-03T10:12:35.894Z,3.01
2022-12-03T10:14:15.655Z,2.98
2022-12-03T10:15:55.430Z,2.98
2022-12-03T10:17:35.198Z,3
2022-12-03T10:19:14.972Z,3.03
2022-12-03T10:20:54.747Z,3.01
2022-12-03T10:24:14.300Z,3.02
2022-12-03T10:25:54.049Z,3
2022-12-03T10:27:33.832Z,3.04
2022-12-03T10:29:13.595Z,3.01
2022-12-03T10:30:53.364Z,3.03
2022-12-03T10:32:33.149Z,3.07
2022-12-03T10:34:12.905Z,3.04
2022-12-03T10:35:52.680Z,3.02
2022-12-03T10:37:32.443Z,3.03
2022-12-03T10:39:12.217Z,3.03
2022-12-03T10:40:51.977Z,3.02
2022-12-03T10:42:31.741Z,3.05
2022-12-03T10:44:11.518Z,3.03
2022-12-03T10:45:51.293Z,3.07
2022-12-03T10:47:31.110Z,3.04
2022-12-03T10:49:10.831Z,3.05
2022-12-03T10:50:50.587Z,3.09
2022-12-03T10:52:30.372Z,3.06
2022-12-03T10:54:10.148Z,3.11
2022-12-03T10:55:49.899Z,3.09
2022-12-03T10:57:29.661Z,3.1
2022-12-03T10:59:09.445Z,3.09
2022-12-03T11:00:49.216Z,3.08
2022-12-03T11:02:28.979Z,3.08
2022-12-03T11:04:08.758Z,3.06
2022-12-03T11:05:48.526Z,3.08
2022-12-03T11:07:28.312Z,3.11
2022-12-03T11:09:08.059Z,3.12
2022-12-03T11:10:47.831Z,3.11
2022-12-03T11:12:27.608Z,3.11
2022-12-03T11:14:07.358Z,3.14
2022-12-03T11:15:47.146Z,3.14
2022-12-03T11:17:26.911Z,3.13
2022-12-03T11:19:06.686Z,3.15
2022-12-03T11:20:46.452Z,3.15
2022-12-03T11:22:26.229Z,3.14
2022-12-03T11:24:05.985Z,3.16
2022-12-03T11:25:45.752Z,3.14
2022-12-03T11:27:25.526Z,3.16
2022-12-03T11:29:05.310Z,3.14
2022-12-03T11:30:45.067Z,3.16
2022-12-03T11:32:24.828Z,3.18
2022-12-03T11:34:04.615Z,3.18
2022-12-03T11:35:44.441Z,3.16
2022-12-03T11:37:24.135Z,3.18
2022-12-03T11:39:03.919Z,3.19
2022-12-03T11:40:43.684Z,3.15
2022-12-03T11:42:23.449Z,3.18
2022-12-03T11:44:03.220Z,3.17
2022-12-03T11:45:42.994Z,3.17
2022-12-03T11:47:22.758Z,3.14
2022-12-03T11:49:02.521Z,3.16
2022-12-03T11:50:42.296Z,3.21
2022-12-03T11:52:22.059Z,3.19
2022-12-03T11:54:01.832Z,3.21
2022-12-03T11:55:41.609Z,3.21
2022-12-03T11:57:21.379Z,3.2
2022-12-03T11:59:01.146Z,3.22
2022-12-03T12:00:40.923Z,3.21
2022-12-03T12:02:20.677Z,3.21
2022-12-03T12:04:00.448Z,3.19
2022-12-03T12:05:40.216Z,3.23
2022-12-03T12:07:20.026Z,3.22
2022-12-03T12:08:59.767Z,3.24
2022-12-03T12:10:39.522Z,3.23
2022-12-03T12:12:19.287Z,3.23
2022-12-03T12:13:59.054Z,3.25
2022-12-03T12:15:38.852Z,3.22
2022-12-03T12:17:18.601Z,3.22
2022-12-03T12:18:58.365Z,3.24
2022-12-03T12:20:38.135Z,3.24
2022-12-03T12:22:17.895Z,3.25
2022-12-03T12:23:57.680Z,3.28
2022-12-03T12:25:37.437Z,3.26
2022-12-03T12:27:17.207Z,3.25
2022-12-03T12:28:56.976Z,3.27
2022-12-03T12:30:36.754Z,3.27
2022-12-03T12:32:16.526Z,3.32
2022-12-03T12:33:56.283Z,3.25
2022-12-03T12:35:36.171Z,3.29
2022-12-03T12:37:15.834Z,3.28
2022-12-03T12:38:55.601Z,3.26
2022-12-03T12:40:35.373Z,3.29
2022-12-03T12:42:15.140Z,3.3
2022-12-03T12:43:54.899Z,3.29
2022-12-03T12:45:34.665Z,3.26
2022-12-03T12:47:14.441Z,3.29
2022-12-03T12:48:54.220Z,3.31
2022-12-03T12:50:33.976Z,3.3
2022-12-03T12:52:13.755Z,3.32
2022-12-03T12:53:53.512Z,3.31
2022-12-03T12:55:33.296Z,3.31
2022-12-03T12:57:13.068Z,3.3
2022-12-03T12:58:52.927Z,3.28
2022-12-03T13:00:32.598Z,3.3
2022-12-03T13:02:12.385Z,3.33
2022-12-03T13:03:52.147Z,3.33
2022-12-03T13:05:31.917Z,3.33
2022-12-03T13:07:11.674Z,3.31
2022-12-03T13:08:51.438Z,3.33
2022-12-03T13:10:31.212Z,3.35
2022-12-03T13:12:10.996Z,3.34
2022-12-03T13:13:50.818Z,3.35
2022-12-03T13:15:30.528Z,3.35
2022-12-03T13:17:10.319Z,3.34
2022-12-03T13:18:50.069Z,3.37
2022-12-03T13:20:29.870Z,3.33
2022-12-03T13:22:09.693Z,3.32
2022-12-03T13:23:49.379Z,3.33
2022-12-03T13:25:29.143Z,3.31
2022-12-03T13:27:09.091Z,3.33
2022-12-03T13:28:48.919Z,3.32
2022-12-03T13:30:28.592Z,3.32
2022-12-03T13:32:08.209Z,3.35
2022-12-03T13:33:48.233Z,3.39
2022-12-03T13:35:27.964Z,3.33
2022-12-03T13:37:07.683Z,3.36
2022-12-03T13:38:47.466Z,3.35
2022-12-03T13:40:27.209Z,3.37
2022-12-03T13:42:07.078Z,3.34
2022-12-03T13:43:46.767Z,3.35
2022-12-03T13:47:06.286Z,3.35
2022-12-03T13:48:46.106Z,3.34
2022-12-03T13:50:25.820Z,3.32
2022-12-03T13:52:05.479Z,3.35
2022-12-03T13:53:45.369Z,3.36
2022-12-03T13:55:25.144Z,3.35
2022-12-03T13:57:04.739Z,3.34
2022-12-03T13:58:44.663Z,3.39
2022-12-03T14:00:24.463Z,3.36
2022-12-03T14:02:04.178Z,3.34
2022-12-03T14:03:43.803Z,3.34
2022-12-03T14:05:23.755Z,3.38
2022-12-03T14:07:03.435Z,3.38
2022-12-03T14:08:43.312Z,3.37
2022-12-03T14:10:23.026Z,3.35
2022-12-03T14:12:02.867Z,3.35
2022-12-03T14:13:42.535Z,3.37
2022-12-03T14:15:22.354Z,3.35
2022-12-03T14:17:01.960Z,3.36
2022-12-03T14:18:41.893Z,3.38
2022-12-03T14:20:21.481Z,3.35
2022-12-03T14:22:01.340Z,3.38
2022-12-03T14:23:41.103Z,3.35
2022-12-03T14:25:20.828Z,3.36
2022-12-03T14:27:00.565Z,3.38
2022-12-03T14:28:40.383Z,3.37
2022-12-03T14:30:20.097Z,3.36
2022-12-03T14:31:59.891Z,3.36
2022-12-03T14:33:39.612Z,3.38
2022-12-03T14:35:19.512Z,3.39
2022-12-03T14:36:59.238Z,3.38
2022-12-03T14:38:38.950Z,3.36
2022-12-03T14:40:18.819Z,3.36
2022-12-03T14:41:58.616Z,3.35
2022-12-03T14:43:38.275Z,3.36
2022-12-03T14:45:17.989Z,3.39
2022-12-03T14:46:57.774Z,3.33
2022-12-03T14:48:37.586Z,3.34
2022-12-03T14:50:17.315Z,3.35
2022-12-03T14:51:57.067Z,3.36
2022-12-03T14:53:36.882Z,3.38
2022-12-03T14:55:16.669Z,3.35
2022-12-03T14:56:56.515Z,3.38
2022-12-03T14:58:36.144Z,3.38
2022-12-03T15:00:16.042Z,3.37
2022-12-03T15:01:55.709Z,3.36
2022-12-03T15:05:15.248Z,3.35
2022-12-03T15:06:55.078Z,3.39
2022-12-03T15:08:34.792Z,3.36
2022-12-03T15:10:14.578Z,3.33
2022-12-03T15:11:54.433Z,3.32
2022-12-03T15:13:34.029Z,3.3
2022-12-03T15:15:13.868Z,3.28
2022-12-03T15:16:53.571Z,3.26
2022-12-03T15:18:33.393Z,3.25
2022-12-03T15:20:13.310Z,3.24
2022-12-03T15:25:12.530Z,3.18
2022-12-03T15:26:52.386Z,3.17
2022-12-03T15:28:32.120Z,3.13
2022-12-03T15:30:11.891Z,3.11
2022-12-03T15:31:51.601Z,3.13
2022-12-03T15:33:31.380Z,3.11
2022-12-03T15:35:11.194Z,3.1
2022-12-03T15:36:50.818Z,3.07
2022-12-03T15:38:30.741Z,3.06
2022-12-03T15:40:10.452Z,3.03
2022-12-03T15:41:50.287Z,3.05
2022-12-03T15:43:29.848Z,3.04
2022-12-03T15:45:09.752Z,3
2022-12-03T15:46:49.466Z,2.99
2022-12-03T15:48:29.275Z,3.01
2022-12-03T15:50:08.940Z,2.98
2022-12-03T15:51:48.677Z,2.98
2022-12-03T15:53:28.638Z,2.96
2022-12-03T15:55:08.297Z,2.94
2022-12-03T15:56:48.119Z,2.95
2022-12-03T15:58:27.899Z,2.95
2022-12-03T16:00:07.640Z,2.94
2022-12-03T16:01:47.434Z,2.9
2022-12-03T16:03:27.125Z,2.91
2022-12-03T16:05:06.960Z,2.9
2022-12-03T16:06:46.710Z,2.89
2022-12-03T16:08:26.498Z,2.9
2022-12-03T16:10:06.245Z,2.9
2022-12-03T16:11:45.926Z,2.87
2022-12-03T16:13:25.756Z,2.85
2022-12-03T16:15:05.414Z,2.86
2022-12-03T16:16:45.249Z,2.87
2022-12-03T16:18:25.070Z,2.86
2022-12-03T16:21:44.619Z,2.83
2022-12-03T16:23:24.375Z,2.83
2022-12-03T16:25:04.193Z,2.83
2022-12-03T16:26:43.872Z,2.8
2022-12-03T16:28:23.734Z,2.79
2022-12-03T16:30:03.387Z,2.79
2022-12-03T16:31:43.159Z,2.81
2022-12-03T16:33:22.862Z,2.78
2022-12-03T16:35:02.656Z,2.79
2022-12-03T16:36:42.397Z,2.8
2022-12-03T16:38:22.176Z,2.8
2022-12-03T16:40:02.100Z,2.77
2022-12-03T16:41:41.736Z,2.78
2022-12-03T16:43:21.602Z,2.75
2022-12-03T16:45:01.398Z,2.78
2022-12-03T16:46:41.087Z,2.76
2022-12-03T16:48:20.911Z,2.75
2022-12-03T16:50:00.539Z,2.75
2022-12-03T16:51:40.444Z,2.76
2022-12-03T16:53:20.070Z,2.76
2022-12-03T16:54:59.838Z,2.77
2022-12-03T16:56:39.642Z,2.76
2022-12-03T16:58:19.465Z,2.73
2022-12-03T16:59:59.291Z,2.75
2022-12-03T17:01:39.053Z,2.76
2022-12-03T17:03:18.869Z,2.75
2022-12-03T17:04:58.480Z,2.73
2022-12-03T17:06:38.209Z,2.73
2022-12-03T17:08:18.054Z,2.72
2022-12-03T17:09:57.749Z,2.73
2022-12-03T17:11:37.580Z,2.71
2022-12-03T17:13:17.436Z,2.74
2022-12-03T17:14:57.147Z,2.72
2022-12-03T17:16:36.973Z,2.7
2022-12-03T17:18:16.733Z,2.73
2022-12-03T17:19:56.354Z,2.72
2022-12-03T17:21:36.319Z,2.73
2022-12-03T17:23:16.054Z,2.72
2022-12-03T17:24:55.821Z,2.72
2022-12-03T17:26:35.556Z,2.69
2022-12-03T17:28:15.328Z,2.72
2022-12-03T17:29:55.105Z,2.72
2022-12-03T17:31:34.854Z,2.72
2022-12-03T17:33:14.590Z,2.72
2022-12-03T17:34:54.402Z,2.71
2022-12-03T17:38:13.894Z,2.72
2022-12-03T17:39:53.715Z,2.71
2022-12-03T17:41:33.512Z,2.72
2022-12-03T17:43:13.134Z,2.69
2022-12-03T17:44:52.890Z,2.68
2022-12-03T17:46:32.758Z,2.69
2022-12-03T17:48:12.505Z,2.69
2022-12-03T17:49:52.303Z,2.68
2022-12-03T17:51:31.994Z,2.7
2022-12-03T17:53:11.737Z,2.7
2022-12-03T17:54:51.546Z,2.71
2022-12-03T17:56:31.368Z,2.7
2022-12-03T17:58:11.127Z,2.7
2022-12-03T17:59:50.843Z,2.7
2022-12-03T18:01:30.750Z,2.69
2022-12-03T18:03:10.435Z,2.7
2022-12-03T18:04:50.135Z,2.71
2022-12-03T18:06:29.820Z,2.7
2022-12-03T18:08:09.596Z,2.7
2022-12-03T18:09:49.440Z,2.68
2022-12-03T18:11:29.132Z,2.69
2022-12-03T18:13:08.953Z,2.68
2022-12-03T18:14:48.745Z,2.7
2022-12-03T18:16:28.515Z,2.69
2022-12-03T18:18:08.253Z,2.68
2022-12-03T18:19:47.974Z,2.7
2022-12-03T18:21:27.819Z,2.71
2022-12-03T18:23:07.646Z,2.67
2022-12-03T18:24:47.296Z,2.68
2022-12-03T18:26:27.220Z,2.67
2022-12-03T18:29:46.596Z,2.7
2022-12-03T18:31:26.334Z,2.67
2022-12-03T18:33:06.098Z,2.7
2022-12-03T18:34:45.863Z,2.71
2022-12-03T18:36:25.623Z,2.68
2022-12-03T18:38:05.409Z,2.7
2022-12-03T18:39:45.185Z,2.69
2022-12-03T18:41:25.015Z,2.68
2022-12-03T18:43:04.816Z,2.7
2022-12-03T18:44:44.600Z,2.67
2022-12-03T18:46:24.239Z,2.7
2022-12-03T18:48:04.051Z,2.68
2022-12-03T18:49:43.767Z,2.67
2022-12-03T18:51:23.604Z,2.7
2022-12-03T18:53:03.387Z,2.68
2022-12-03T18:54:43.100Z,2.7
2022-12-03T18:56:22.955Z,2.67
2022-12-03T18:58:02.748Z,2.67
2022-12-03T18:59:42.372Z,2.68
2022-12-03T19:01:22.175Z,2.68
2022-12-03T19:03:02.048Z,2.7
2022-12-03T19:04:41.812Z,2.71
2022-12-03T19:06:21.633Z,2.71
2022-12-03T19:08:01.375Z,2.7
2022-12-03T19:09:41.120Z,2.68
2022-12-03T19:11:20.905Z,2.69
2022-12-03T19:13:00.635Z,2.68
2022-12-03T19:14:40.387Z,2.71
2022-12-03T19:16:20.163Z,2.69
2022-12-03T19:17:59.978Z,2.69
2022-12-03T19:19:39.671Z,2.69
2022-12-03T19:21:19.348Z,2.68
2022-12-03T19:22:59.245Z,2.68
2022-12-03T19:24:39.000Z,2.71
2022-12-03T19:26:18.768Z,2.7
2022-12-03T19:27:58.449Z,2.68
2022-12-03T19:29:38.259Z,2.69
2022-12-03T19:31:17.967Z,2.69
2022-12-03T19:32:57.711Z,2.7
2022-12-03T19:34:37.558Z,2.72
2022-12-03T19:36:17.296Z,2.71
2022-12-03T19:37:57.137Z,2.7
2022-12-03T19:41:16.613Z,2.73
2022-12-03T19:42:56.315Z,2.72
2022-12-03T19:44:36.268Z,2.72
2022-12-03T19:46:15.878Z,2.72
2022-12-03T19:49:35.442Z,2.7
2022-12-03T19:51:15.244Z,2.72
2022-12-03T19:52:55.003Z,2.72
2022-12-03T19:54:34.687Z,2.73
2022-12-03T19:56:14.436Z,2.72
2022-12-03T19:57:54.255Z,2.72
2022-12-03T19:59:34.150Z,2.7
2022-12-03T20:01:13.832Z,2.74
2022-12-03T20:02:53.701Z,2.75
2022-12-03T20:04:33.383Z,2.71
2022-12-03T20:06:13.130Z,2.72
2022-12-03T20:07:52.831Z,2.75
2022-12-03T20:09:32.750Z,2.75
2022-12-03T20:11:12.445Z,2.72
2022-12-03T20:12:52.130Z,2.72
2022-12-03T20:14:31.944Z,2.75
2022-12-03T20:16:11.686Z,2.72
2022-12-03T20:17:51.612Z,2.74
2022-12-03T20:19:31.215Z,2.76
2022-12-03T20:21:10.966Z,2.76
2022-12-03T20:22:50.718Z,2.74
2022-12-03T20:24:30.574Z,2.76
2022-12-03T20:26:10.363Z,2.74
2022-12-03T20:27:50.072Z,2.73
2022-12-03T20:29:29.907Z,2.74
2022-12-03T20:31:09.699Z,2.76
2022-12-03T20:32:49.475Z,2.75
2022-12-03T20:34:29.130Z,2.74
2022-12-03T20:36:08.857Z,2.75
2022-12-03T20:37:48.648Z,2.77
2022-12-03T20:39:28.473Z,2.74
2022-12-03T20:41:08.229Z,2.75
2022-12-03T20:42:47.959Z,2.74
2022-12-03T20:44:27.708Z,2.77
2022-12-03T20:46:07.492Z,2.77
2022-12-03T20:47:47.295Z,2.74
2022-12-03T20:49:27.114Z,2.75
2022-12-03T20:51:06.767Z,2.77
2022-12-03T20:52:46.616Z,2.76
2022-12-03T20:54:26.301Z,2.77
2022-12-03T20:56:06.080Z,2.76
2022-12-03T20:57:45.889Z,2.76
2022-12-03T20:59:25.752Z,2.76
2022-12-03T21:01:05.372Z,2.77
2022-12-03T21:02:45.144Z,2.77
2022-12-03T21:04:24.914Z,2.77
2022-12-03T21:06:04.669Z,2.79
2022-12-03T21:07:44.444Z,2.8
2022-12-03T21:09:24.268Z,2.77
2022-12-03T21:11:04.012Z,2.78
2022-12-03T21:12:43.739Z,2.79
2022-12-03T21:14:23.511Z,2.79
2022-12-03T21:16:03.277Z,2.8
2022-12-03T21:17:43.061Z,2.79
2022-12-03T21:19:22.912Z,2.81
2022-12-03T21:21:02.587Z,2.79
2022-12-03T21:22:42.358Z,2.81
2022-12-03T21:24:22.188Z,2.82
2022-12-03T21:26:01.906Z,2.8
2022-12-03T21:27:41.661Z,2.8
2022-12-03T21:29:21.493Z,2.83
2022-12-03T21:31:01.248Z,2.8
2022-12-03T21:32:40.965Z,2.83
2022-12-03T21:34:20.736Z,2.81
2022-12-03T21:37:40.404Z,2.82
2022-12-03T21:39:20.100Z,2.84
2022-12-03T21:40:59.785Z,2.84
2022-12-03T21:42:39.662Z,2.84
2022-12-03T21:44:19.379Z,2.85
2022-12-03T21:45:59.203Z,2.85
2022-12-03T21:47:39.006Z,2.83
2022-12-03T21:49:18.669Z,2.83
2022-12-03T21:50:58.386Z,2.84
2022-12-03T21:52:38.159Z,2.85
2022-12-03T21:54:17.932Z,2.85
2022-12-03T21:55:57.715Z,2.86
2022-12-03T21:59:17.281Z,2.86
2022-12-03T22:00:57.083Z,2.84
2022-12-03T22:02:36.767Z,2.86
2022-12-03T22:04:16.577Z,2.86
2022-12-03T22:05:56.301Z,2.84
2022-12-03T22:07:36.139Z,2.87
2022-12-03T22:09:15.880Z,2.87
2022-12-03T22:10:55.760Z,2.88
2022-12-03T22:12:35.424Z,2.89
2022-12-03T22:14:15.293Z,2.88
2022-12-03T22:15:55.019Z,2.88
2022-12-03T22:17:34.734Z,2.86
2022-12-03T22:19:14.429Z,2.85
2022-12-03T22:22:33.966Z,2.88
2022-12-03T22:24:13.739Z,2.89
2022-12-03T22:25:53.495Z,2.88
2022-12-03T22:27:33.273Z,2.89
2022-12-03T22:29:13.162Z,2.9
2022-12-03T22:30:52.802Z,2.9
2022-12-03T22:32:32.569Z,2.9
2022-12-03T22:34:12.372Z,2.9
2022-12-03T22:35:52.151Z,2.88
2022-12-03T22:37:31.869Z,2.9
2022-12-03T22:39:11.638Z,2.92
2022-12-03T22:40:51.420Z,2.92
2022-12-03T22:42:31.175Z,2.91
2022-12-03T22:44:11.104Z,2.92
2022-12-03T22:45:50.710Z,2.93
2022-12-03T22:47:30.556Z,2.93
2022-12-03T22:49:10.307Z,2.92
2022-12-03T22:50:50.067Z,2.93
2022-12-03T22:52:29.881Z,2.91